createdAt,value
2022-12-28T00:01:50.726Z,11.93
2022-12-28T00:04:18.695Z,9.98
2022-12-28T00:06:47.504Z,9.52
2022-12-28T00:09:15.220Z,12.43
2022-12-28T00:11:42.938Z,9.38
2022-12-28T00:14:12.050Z,12.18
2022-12-28T00:16:41.774Z,11.32
2022-12-28T00:19:12.789Z,14.05
2022-12-28T00:21:40.433Z,13.77
2022-12-28T00:24:08.747Z,11.57
2022-12-28T00:26:37.087Z,12.50
2022-12-28T00:29:05.864Z,20.35
2022-12-28T00:31:35.488Z,17.75
2022-12-28T00:34:03.580Z,19.27
2022-12-28T00:37:10.212Z,16.85
2022-12-28T00:39:20.286Z,14.50
2022-12-28T00:41:48.756Z,14.30
2022-12-28T00:44:16.411Z,14.85
2022-12-28T00:46:45.501Z,15.68
2022-12-28T00:49:13.229Z,11.82
2022-12-28T00:51:40.901Z,11.98
2022-12-28T00:54:08.646Z,13.93
2022-12-28T00:56:36.410Z,14.05
2022-12-28T00:59:04.380Z,12.45
2022-12-28T01:01:32.108Z,11.70
2022-12-28T01:04:01.505Z,10.38
2022-12-28T01:06:29.918Z,12.23
2022-12-28T01:08:57.665Z,9.95
2022-12-28T01:11:27.847Z,11.88
2022-12-28T01:13:58.057Z,14.30
2022-12-28T01:16:27.780Z,14.55
2022-12-28T01:18:57.354Z,14.65
2022-12-28T01:21:28.379Z,14.60
2022-12-28T01:23:57.998Z,16.73
2022-12-28T01:26:26.908Z,13.07
2022-12-28T01:28:54.685Z,13.18
2022-12-28T01:31:23.285Z,12.75
2022-12-28T01:33:51.023Z,8.73
2022-12-28T01:36:20.387Z,8.90
2022-12-28T01:38:53.283Z,9.48
2022-12-28T01:41:21.364Z,10.10
2022-12-28T01:44:27.667Z,9.38
2022-12-28T01:46:57.951Z,8.57
2022-12-28T01:49:30.865Z,8.15
2022-12-28T01:52:05.349Z,9.52
2022-12-28T01:54:39.163Z,8.00
2022-12-28T01:57:07.159Z,6.80
2022-12-28T01:59:40.303Z,10.57
2022-12-28T02:02:11.224Z,6.15
2022-12-28T02:04:39.259Z,8.07
2022-12-28T02:07:07.054Z,12.07
2022-12-28T02:09:40.083Z,10.15
2022-12-28T02:12:09.267Z,10.55
2022-12-28T02:14:37.370Z,12.20
2022-12-28T02:17:05.299Z,12.77
2022-12-28T02:19:42.144Z,13.07
2022-12-28T02:22:29.134Z,11.60
2022-12-28T02:25:19.762Z,10.60
2022-12-28T02:28:00.868Z,11.93
2022-12-28T02:30:35.377Z,14.35
2022-12-28T02:33:10.136Z,12.35
2022-12-28T02:35:45.497Z,14.93
2022-12-28T02:38:21.243Z,13.65
2022-12-28T02:40:52.285Z,12.77
2022-12-28T02:43:20.242Z,12.65
2022-12-28T02:46:08.172Z,15.05
2022-12-28T02:49:03.985Z,18.00
2022-12-28T02:51:47.603Z,15.88
2022-12-28T02:54:48.084Z,13.13
2022-12-28T02:57:27.301Z,11.55
2022-12-28T03:00:05.965Z,12.85
2022-12-28T03:02:58.943Z,11.13
2022-12-28T03:05:55.237Z,8.73
2022-12-28T03:08:38.664Z,9.57
2022-12-28T03:11:10.298Z,9.30
2022-12-28T03:13:47.009Z,15.60
2022-12-28T03:16:19.647Z,12.35
2022-12-28T03:19:11.804Z,10.23
2022-12-28T03:21:59.945Z,13.00
2022-12-28T03:24:48.236Z,11.55
2022-12-28T03:27:35.526Z,11.60
2022-12-28T03:30:23.951Z,13.77
2022-12-28T03:32:52.228Z,14.38
2022-12-28T03:35:24.520Z,10.98
2022-12-28T03:37:58.029Z,12.48
2022-12-28T03:40:32.370Z,14.25
2022-12-28T03:43:23.133Z,16.23
2022-12-28T03:45:57.437Z,13.02
2022-12-28T03:48:26.154Z,7.35
2022-12-28T03:50:56.091Z,9.60
2022-12-28T03:53:30.210Z,8.10
2022-12-28T03:56:07.856Z,7.25
2022-12-28T03:58:35.582Z,7.28
2022-12-28T04:01:03.350Z,8.40
2022-12-28T04:03:31.440Z,8.90
2022-12-28T04:06:04.242Z,7.00
2022-12-28T04:08:32.937Z,9.70
2022-12-28T04:11:01.246Z,8.43
2022-12-28T04:13:30.636Z,8.45
2022-12-28T04:15:59.702Z,7.68
2022-12-28T04:18:27.423Z,8.73
2022-12-28T04:20:55.601Z,7.93
2022-12-28T04:23:24.741Z,6.90
2022-12-28T04:26:00.762Z,7.43
2022-12-28T04:28:29.090Z,5.63
2022-12-28T04:30:57.548Z,8.30
2022-12-28T04:33:26.189Z,6.35
2022-12-28T04:35:54.113Z,6.32
2022-12-28T04:38:22.601Z,6.10
2022-12-28T04:40:51.610Z,6.88
2022-12-28T04:43:19.361Z,5.55
2022-12-28T04:45:56.639Z,8.95
2022-12-28T04:48:24.437Z,6.32
2022-12-28T04:50:52.426Z,7.95
2022-12-28T04:53:20.181Z,7.60
2022-12-28T04:55:48.337Z,9.65
2022-12-28T04:58:17.710Z,7.38
2022-12-28T05:00:45.523Z,8.00
2022-12-28T05:03:13.244Z,8.05
2022-12-28T05:05:40.962Z,8.05
2022-12-28T05:08:08.708Z,6.68
2022-12-28T05:10:36.990Z,6.30
2022-12-28T05:13:04.685Z,3.95
2022-12-28T05:15:33.912Z,10.10
2022-12-28T05:18:01.632Z,6.43
2022-12-28T05:20:29.396Z,8.07
2022-12-28T05:22:57.071Z,3.47
2022-12-28T05:25:24.781Z,5.00
2022-12-28T05:27:52.492Z,3.88
2022-12-28T05:30:20.278Z,4.38
2022-12-28T05:32:49.386Z,5.93
2022-12-28T05:35:17.155Z,7.28
2022-12-28T05:37:44.918Z,6.25
2022-12-28T05:40:12.998Z,4.28
2022-12-28T05:42:42.209Z,7.80
2022-12-28T05:45:12.931Z,5.47
2022-12-28T05:47:40.682Z,6.35
2022-12-28T05:50:10.036Z,5.30
2022-12-28T05:52:38.758Z,5.03
2022-12-28T05:55:07.609Z,6.00
2022-12-28T05:57:35.299Z,6.38
2022-12-28T06:00:03.305Z,8.35
2022-12-28T06:02:31.115Z,7.47
2022-12-28T06:04:58.888Z,6.70
2022-12-28T06:07:27.918Z,5.82
2022-12-28T06:09:55.638Z,8.55
2022-12-28T06:12:23.259Z,7.40
2022-12-28T06:14:50.888Z,5.82
2022-12-28T06:17:18.629Z,5.32
2022-12-28T06:19:46.354Z,6.40
2022-12-28T06:22:14.020Z,7.50
2022-12-28T06:24:43.037Z,8.00
2022-12-28T06:27:10.720Z,6.93
2022-12-28T06:29:38.339Z,6.25
2022-12-28T06:32:06.304Z,8.68
2022-12-28T06:34:33.961Z,10.80
2022-12-28T06:37:01.623Z,7.72
2022-12-28T06:39:29.280Z,9.15
2022-12-28T06:41:58.573Z,8.63
2022-12-28T06:44:26.263Z,10.95
2022-12-28T06:46:53.915Z,7.28
2022-12-28T06:49:21.562Z,10.05
2022-12-28T06:51:49.211Z,9.35
2022-12-28T06:54:16.986Z,9.63
2022-12-28T06:56:44.622Z,8.32
2022-12-28T06:59:13.648Z,5.88
2022-12-28T07:01:44.664Z,8.00
2022-12-28T07:04:13.291Z,5.82
2022-12-28T07:06:43.259Z,7.60
2022-12-28T07:09:13.442Z,7.10
2022-12-28T07:11:41.262Z,7.05
2022-12-28T07:14:08.961Z,8.68
2022-12-28T07:19:04.572Z,10.85
2022-12-28T07:21:34.535Z,7.65
2022-12-28T07:24:02.614Z,8.90
2022-12-28T07:26:32.666Z,8.68
2022-12-28T07:29:02.466Z,5.50
2022-12-28T07:31:34.720Z,5.88
2022-12-28T07:34:07.614Z,6.30
2022-12-28T07:36:35.339Z,7.30
2022-12-28T07:39:03.956Z,9.15
2022-12-28T07:41:34.015Z,8.85
2022-12-28T07:44:02.045Z,7.47
2022-12-28T07:46:32.045Z,7.75
2022-12-28T07:49:02.688Z,9.77
2022-12-28T07:51:33.261Z,6.57
2022-12-28T07:54:01.054Z,8.15
2022-12-28T07:56:30.544Z,8.25
2022-12-28T07:58:59.913Z,6.30
2022-12-28T08:01:29.601Z,5.97
2022-12-28T08:03:59.381Z,11.32
2022-12-28T08:06:28.749Z,6.45
2022-12-28T08:09:00.199Z,6.35
2022-12-28T08:11:30.588Z,5.18
2022-12-28T08:13:59.060Z,3.80
2022-12-28T08:16:29.043Z,4.35
2022-12-28T08:18:56.725Z,4.30
2022-12-28T08:21:26.722Z,3.83
2022-12-28T08:23:54.440Z,5.38
2022-12-28T08:26:25.381Z,5.28
2022-12-28T08:28:55.924Z,5.65
2022-12-28T08:31:25.153Z,4.40
2022-12-28T08:33:54.303Z,5.47
2022-12-28T08:36:22.503Z,6.30
2022-12-28T08:38:50.468Z,16.77
2022-12-28T08:41:21.253Z,3.55
2022-12-28T08:43:51.079Z,3.88
2022-12-28T08:46:20.777Z,3.38
2022-12-28T08:48:50.230Z,2.60
2022-12-28T08:51:19.929Z,4.57
2022-12-28T08:53:48.383Z,4.30
2022-12-28T08:56:18.314Z,5.38
2022-12-28T08:58:47.199Z,3.10
2022-12-28T09:01:18.452Z,2.78
2022-12-28T09:03:47.746Z,3.40
2022-12-28T09:06:17.547Z,3.05
2022-12-28T09:09:03.153Z,2.78
2022-12-28T09:11:34.533Z,3.08
2022-12-28T09:14:02.660Z,3.00
2022-12-28T09:16:31.931Z,5.03
2022-12-28T09:19:01.404Z,4.72
2022-12-28T09:21:31.449Z,3.67
2022-12-28T09:23:59.475Z,2.28
2022-12-28T09:26:28.950Z,4.53
2022-12-28T09:28:59.952Z,3.17
2022-12-28T09:31:29.528Z,3.20
2022-12-28T09:36:49.569Z,3.15
2022-12-28T09:39:19.113Z,2.47
2022-12-28T09:41:51.186Z,4.30
2022-12-28T09:44:35.014Z,5.38
2022-12-28T09:47:12.624Z,2.95
2022-12-28T09:49:47.399Z,3.28
2022-12-28T09:52:27.306Z,2.10
2022-12-28T09:54:56.243Z,3.63
2022-12-28T09:57:29.131Z,3.45
2022-12-28T09:59:56.905Z,2.47
2022-12-28T10:02:30.896Z,2.15
2022-12-28T10:05:00.333Z,2.00
2022-12-28T10:07:28.049Z,2.25
2022-12-28T10:09:56.090Z,2.20
2022-12-28T10:12:25.394Z,2.67
2022-12-28T10:14:54.683Z,1.95
2022-12-28T10:17:30.769Z,1.83
2022-12-28T10:20:00.645Z,1.88
2022-12-28T10:22:38.169Z,1.38
2022-12-28T10:25:14.852Z,3.17
2022-12-28T10:27:45.441Z,2.42
2022-12-28T10:30:18.181Z,3.22
2022-12-28T10:32:51.713Z,3.20
2022-12-28T10:35:29.103Z,1.65
2022-12-28T10:38:04.144Z,1.95
2022-12-28T10:40:35.463Z,2.85
2022-12-28T10:43:10.132Z,3.70
2022-12-28T10:45:41.826Z,1.63
2022-12-28T10:48:15.317Z,1.88
2022-12-28T10:50:49.909Z,1.95
2022-12-28T10:53:19.802Z,2.22
2022-12-28T10:55:47.868Z,3.03
2022-12-28T10:58:30.224Z,2.15
2022-12-28T11:01:00.917Z,2.17
2022-12-28T11:03:30.867Z,4.10
2022-12-28T11:06:15.118Z,1.90
2022-12-28T11:08:44.556Z,1.88
2022-12-28T11:11:20.992Z,3.58
2022-12-28T11:13:53.184Z,1.92
2022-12-28T11:16:21.164Z,1.73
2022-12-28T11:18:48.988Z,1.70
2022-12-28T11:21:21.002Z,4.07
2022-12-28T11:23:49.664Z,1.40
2022-12-28T11:26:18.202Z,1.83
2022-12-28T11:28:48.778Z,2.17
2022-12-28T11:31:24.045Z,2.08
2022-12-28T11:33:53.970Z,2.17
2022-12-28T11:36:25.532Z,3.72
2022-12-28T11:38:55.125Z,2.47
2022-12-28T11:41:56.085Z,2.38
2022-12-28T11:44:54.111Z,2.25
2022-12-28T11:47:33.051Z,3.28
2022-12-28T11:50:39.319Z,2.15
2022-12-28T11:53:22.730Z,2.30
2022-12-28T11:56:04.194Z,2.58
2022-12-28T11:59:03.477Z,3.97
2022-12-28T12:01:48.614Z,2.00
2022-12-28T12:04:43.749Z,2.05
2022-12-28T12:07:41.200Z,2.97
2022-12-28T12:10:30.761Z,1.63
2022-12-28T12:12:59.106Z,2.78
2022-12-28T12:15:34.012Z,2.67
2022-12-28T12:18:05.061Z,2.30
2022-12-28T12:20:47.677Z,2.33
2022-12-28T12:25:54.693Z,3.25
2022-12-28T12:28:35.325Z,3.38
2022-12-28T12:31:05.804Z,3.60
2022-12-28T12:33:36.971Z,3.00
2022-12-28T12:36:23.856Z,2.35
2022-12-28T12:39:20.587Z,2.75
2022-12-28T12:42:00.717Z,3.10
2022-12-28T12:44:36.141Z,3.13
2022-12-28T12:47:30.125Z,2.83
2022-12-28T12:50:35.913Z,3.38
2022-12-28T12:53:12.300Z,3.67
2022-12-28T12:55:54.479Z,3.13
2022-12-28T12:58:29.469Z,1.92
2022-12-28T13:01:24.124Z,2.30
2022-12-28T13:03:52.930Z,1.80
2022-12-28T13:06:24.233Z,2.75
2022-12-28T13:08:59.039Z,2.35
2022-12-28T13:11:30.912Z,2.95
2022-12-28T13:14:00.088Z,2.92
2022-12-28T13:16:31.084Z,3.97
2022-12-28T13:19:00.629Z,3.03
2022-12-28T13:21:30.430Z,4.93
2022-12-28T13:23:58.308Z,4.18
2022-12-28T13:26:29.534Z,4.72
2022-12-28T13:29:01.807Z,7.53
2022-12-28T13:31:35.233Z,7.47
2022-12-28T13:34:05.263Z,19.23
2022-12-28T13:36:33.494Z,5.10
2022-12-28T13:39:14.599Z,7.00
2022-12-28T13:41:50.198Z,6.10
2022-12-28T13:44:29.755Z,5.22
2022-12-28T13:47:03.811Z,6.45
2022-12-28T13:49:36.285Z,7.57
2022-12-28T13:54:35.931Z,7.75
2022-12-28T13:57:36.425Z,7.13
2022-12-28T13:59:55.570Z,9.10
2022-12-28T14:02:25.620Z,5.97
2022-12-28T14:04:55.261Z,4.72
2022-12-28T14:07:26.639Z,6.75
2022-12-28T14:09:55.299Z,6.47
2022-12-28T14:12:23.644Z,5.97
2022-12-28T14:14:53.721Z,5.38
2022-12-28T14:17:22.968Z,7.43
2022-12-28T14:19:52.704Z,5.57
2022-12-28T14:22:29.021Z,13.88
2022-12-28T14:25:08.367Z,13.38
2022-12-28T14:27:40.860Z,9.23
2022-12-28T14:32:49.840Z,7.20
2022-12-28T14:35:21.246Z,4.53
2022-12-28T14:37:53.621Z,9.10
2022-12-28T14:40:28.430Z,10.00
2022-12-28T14:42:57.486Z,9.45
2022-12-28T14:46:05.277Z,8.00
2022-12-28T14:48:34.713Z,7.03
2022-12-28T14:51:04.567Z,8.95
2022-12-28T14:53:33.244Z,7.28
2022-12-28T14:56:05.385Z,8.85
2022-12-28T14:58:39.395Z,7.28
2022-12-28T15:01:10.422Z,7.80
2022-12-28T15:03:53.161Z,6.82
2022-12-28T15:08:49.938Z,6.28
2022-12-28T15:11:19.722Z,8.90
2022-12-28T15:13:47.787Z,10.07
2022-12-28T15:16:18.085Z,8.27
2022-12-28T15:18:46.934Z,8.25
2022-12-28T15:21:17.349Z,9.10
2022-12-28T15:23:45.383Z,7.38
2022-12-28T15:26:14.736Z,7.43
2022-12-28T15:28:42.884Z,10.95
2022-12-28T15:31:13.234Z,11.77
2022-12-28T15:33:42.537Z,12.43
2022-12-28T15:36:17.236Z,11.52
2022-12-28T15:38:46.047Z,12.80
2022-12-28T15:41:27.763Z,13.00
2022-12-28T15:43:55.582Z,11.25
2022-12-28T15:46:23.320Z,13.98
2022-12-28T15:48:52.480Z,13.52
2022-12-28T15:51:20.291Z,14.27
2022-12-28T15:53:48.003Z,16.40
2022-12-28T15:56:21.962Z,8.98
2022-12-28T15:58:49.881Z,8.73
2022-12-28T16:01:17.604Z,4.30
2022-12-28T16:03:45.451Z,4.68
2022-12-28T16:06:14.603Z,5.28
2022-12-28T16:08:42.381Z,10.35
2022-12-28T16:11:10.968Z,4.53
2022-12-28T16:13:38.723Z,5.50
2022-12-28T16:16:07.015Z,5.28
2022-12-28T16:18:34.816Z,6.88
2022-12-28T16:21:02.990Z,6.90
2022-12-28T16:23:33.364Z,6.32
2022-12-28T16:26:01.240Z,9.43
2022-12-28T16:28:29.445Z,6.82
2022-12-28T16:30:57.809Z,10.73
2022-12-28T16:33:26.012Z,9.75
2022-12-28T16:35:59.566Z,8.50
2022-12-28T16:38:29.578Z,5.68
2022-12-28T16:40:58.953Z,7.38
2022-12-28T16:43:26.664Z,6.25
2022-12-28T16:45:54.445Z,7.15
2022-12-28T16:48:22.293Z,10.30
2022-12-28T16:50:58.929Z,14.30
2022-12-28T16:53:26.871Z,10.48
2022-12-28T16:55:54.665Z,9.52
2022-12-28T16:58:23.737Z,11.05
2022-12-28T17:00:51.530Z,6.90
2022-12-28T17:03:19.307Z,7.78
2022-12-28T17:05:50.407Z,7.35
2022-12-28T17:08:19.143Z,9.85
2022-12-28T17:10:47.325Z,16.20
2022-12-28T17:13:16.240Z,8.60
2022-12-28T17:15:46.262Z,13.77
2022-12-28T17:18:14.676Z,8.95
2022-12-28T17:20:42.646Z,7.47
2022-12-28T17:23:10.403Z,8.82
2022-12-28T17:25:38.315Z,8.10
2022-12-28T17:28:06.333Z,5.47
2022-12-28T17:30:34.780Z,7.68
2022-12-28T17:33:04.081Z,10.27
2022-12-28T17:35:31.780Z,7.85
2022-12-28T17:37:59.695Z,10.10
2022-12-28T17:40:28.165Z,6.65
2022-12-28T17:42:56.237Z,13.18
2022-12-28T17:45:24.446Z,11.40
2022-12-28T17:47:53.104Z,7.13
2022-12-28T17:50:23.377Z,8.10
2022-12-28T17:52:53.403Z,7.15
2022-12-28T17:55:21.568Z,7.50
2022-12-28T17:57:49.267Z,12.35
2022-12-28T18:00:18.967Z,13.50
2022-12-28T18:02:47.234Z,10.27
2022-12-28T18:05:15.062Z,12.65
2022-12-28T18:07:44.607Z,10.27
2022-12-28T18:10:12.699Z,13.55
2022-12-28T18:12:40.437Z,15.35
2022-12-28T18:15:09.072Z,27.75
2022-12-28T18:17:37.284Z,17.80
2022-12-28T18:20:05.736Z,30.80
2022-12-28T18:22:33.487Z,14.95
2022-12-28T18:25:02.600Z,20.65
2022-12-28T18:27:30.343Z,21.23
2022-12-28T18:29:58.037Z,14.43
2022-12-28T18:32:25.832Z,35.38
2022-12-28T18:34:53.875Z,19.10
2022-12-28T18:37:21.638Z,9.32
2022-12-28T18:39:49.387Z,14.30
2022-12-28T18:42:19.399Z,9.80
2022-12-28T18:44:47.704Z,7.95
2022-12-28T18:47:16.332Z,8.45
2022-12-28T18:49:47.184Z,12.48
2022-12-28T18:52:15.462Z,29.08
2022-12-28T18:54:43.703Z,54.22
2022-12-28T18:57:11.815Z,11.65
2022-12-28T18:59:40.926Z,10.30
2022-12-28T19:02:19.283Z,14.98
2022-12-28T19:04:48.019Z,15.73
2022-12-28T19:07:18.115Z,13.57
2022-12-28T19:10:12.453Z,12.35
2022-12-28T19:12:44.266Z,16.10
2022-12-28T19:15:13.792Z,15.63
2022-12-28T19:17:41.606Z,13.13
2022-12-28T19:20:10.149Z,13.27
2022-12-28T19:22:37.961Z,9.55
2022-12-28T19:25:06.716Z,12.98
2022-12-28T19:27:34.559Z,12.73
2022-12-28T19:30:05.091Z,13.05
2022-12-28T19:32:34.873Z,12.13
2022-12-28T19:35:02.888Z,16.33
2022-12-28T19:37:30.676Z,12.93
2022-12-28T19:39:58.524Z,14.20
2022-12-28T19:42:26.494Z,12.25
2022-12-28T19:44:54.234Z,14.68
2022-12-28T19:47:21.912Z,17.88
2022-12-28T19:49:51.093Z,23.83
2022-12-28T19:52:18.853Z,19.92
2022-12-28T19:54:46.712Z,19.02
2022-12-28T19:57:14.561Z,18.75
2022-12-28T19:59:42.384Z,14.60
2022-12-28T20:02:12.052Z,10.82
2022-12-28T20:04:39.852Z,6.95
2022-12-28T20:07:08.999Z,9.93
2022-12-28T20:09:38.402Z,7.00
2022-12-28T20:12:06.988Z,18.83
2022-12-28T20:14:34.931Z,6.68
2022-12-28T20:17:02.656Z,6.18
2022-12-28T20:19:32.769Z,13.45
2022-12-28T20:22:02.112Z,8.73
2022-12-28T20:24:31.286Z,9.27
2022-12-28T20:27:01.696Z,10.48
2022-12-28T20:29:29.873Z,10.63
2022-12-28T20:31:57.728Z,10.95
2022-12-28T20:34:27.734Z,12.27
2022-12-28T20:36:55.575Z,12.88
2022-12-28T20:39:23.332Z,13.23
2022-12-28T20:42:21.351Z,10.27
2022-12-28T20:44:49.082Z,11.25
2022-12-28T20:47:18.300Z,9.13
2022-12-28T20:49:46.495Z,12.43
2022-12-28T20:52:14.190Z,13.63
2022-12-28T20:54:42.075Z,9.13
2022-12-28T20:57:11.275Z,6.68
2022-12-28T20:59:39.107Z,6.28
2022-12-28T21:02:06.885Z,6.82
2022-12-28T21:04:34.670Z,6.00
2022-12-28T21:07:02.400Z,6.68
2022-12-28T21:09:30.215Z,4.78
2022-12-28T21:11:58.356Z,4.25
2022-12-28T21:14:27.503Z,4.97
2022-12-28T21:16:55.298Z,4.88
2022-12-28T21:19:23.111Z,5.88
2022-12-28T21:21:50.868Z,4.13
2022-12-28T21:24:24.421Z,5.03
2022-12-28T21:26:52.201Z,3.63
2022-12-28T21:29:25.517Z,4.10
2022-12-28T21:31:54.990Z,3.28
2022-12-28T21:34:23.013Z,4.88
2022-12-28T21:36:50.764Z,6.78
2022-12-28T21:39:18.727Z,4.85
2022-12-28T21:41:52.823Z,3.47
2022-12-28T21:44:23.293Z,4.78
2022-12-28T21:46:52.460Z,5.45
2022-12-28T21:49:25.094Z,4.90
2022-12-28T21:51:52.834Z,4.18
2022-12-28T21:54:22.191Z,4.78
2022-12-28T21:56:55.736Z,4.07
2022-12-28T21:59:24.691Z,3.55
2022-12-28T22:02:11.505Z,3.75
2022-12-28T22:05:02.454Z,3.80
2022-12-28T22:07:31.218Z,3.70
2022-12-28T22:10:16.501Z,5.47
2022-12-28T22:12:44.280Z,5.30
2022-12-28T22:15:31.425Z,4.40
2022-12-28T22:18:01.858Z,4.35
2022-12-28T22:20:31.475Z,5.57
2022-12-28T22:23:00.774Z,4.47
2022-12-28T22:25:30.160Z,3.53
2022-12-28T22:27:58.437Z,4.32
2022-12-28T22:30:26.723Z,4.53
2022-12-28T22:32:54.475Z,4.82
2022-12-28T22:35:22.578Z,5.38
2022-12-28T22:37:51.721Z,4.32
2022-12-28T22:40:20.237Z,4.32
2022-12-28T22:42:50.162Z,4.60
2022-12-28T22:45:19.449Z,5.70
2022-12-28T22:47:47.854Z,5.63
2022-12-28T22:50:17.804Z,6.00
2022-12-28T22:52:46.130Z,4.97
2022-12-28T22:55:15.781Z,6.38
2022-12-28T22:57:44.067Z,4.25
2022-12-28T23:00:14.425Z,2.47
2022-12-28T23:02:42.976Z,5.50
2022-12-28T23:05:11.067Z,6.30
2022-12-28T23:07:39.542Z,4.55
2022-12-28T23:10:10.161Z,5.15
2022-12-28T23:12:39.306Z,5.22
2022-12-28T23:15:19.767Z,3.67
2022-12-28T23:17:48.718Z,6.22
2022-12-28T23:20:34.451Z,5.43
2022-12-28T23:23:19.612Z,5.60
2022-12-28T23:26:04.828Z,5.07
2022-12-28T23:28:36.134Z,3.65
2022-12-28T23:31:04.477Z,6.03
2022-12-28T23:33:32.258Z,6.28
2022-12-28T23:36:02.526Z,5.20
2022-12-28T23:38:31.478Z,4.53
2022-12-28T23:41:13.129Z,3.80
2022-12-28T23:43:43.019Z,4.07
2022-12-28T23:46:10.853Z,3.20
2022-12-28T23:48:38.728Z,4.25
2022-12-28T23:51:08.991Z,3.30
2022-12-28T23:53:36.843Z,4.03
2022-12-28T23:56:04.684Z,4.43
2022-12-28T23:58:32.425Z,3.67
